createdAt,value
2022-10-02T00:00:37.441Z,27.34
2022-10-02T00:03:13.363Z,27.37
2022-10-02T00:05:45.058Z,27.36
2022-10-02T00:08:24.035Z,27.38
2022-10-02T00:10:57.751Z,27.38
2022-10-02T00:13:35.344Z,27.40
2022-10-02T00:16:05.550Z,27.28
2022-10-02T00:18:36.656Z,27.36
2022-10-02T00:21:16.536Z,27.37
2022-10-02T00:23:51.299Z,27.39
2022-10-02T00:26:36.578Z,27.41
2022-10-02T00:29:15.181Z,27.40
2022-10-02T00:31:52.349Z,27.38
2022-10-02T00:34:37.293Z,27.29
2022-10-02T00:37:34.823Z,27.41
2022-10-02T00:40:31.744Z,27.40
2022-10-02T00:42:58.044Z,27.28
2022-10-02T00:45:50.188Z,27.39
2022-10-02T00:48:38.527Z,27.38
2022-10-02T00:51:14.151Z,27.37
2022-10-02T00:54:14.375Z,27.38
2022-10-02T00:57:02.538Z,27.26
2022-10-02T01:00:07.652Z,27.38
2022-10-02T01:02:56.585Z,27.32
2022-10-02T01:05:23.774Z,27.21
2022-10-02T01:07:53.117Z,27.22
2022-10-02T01:10:22.295Z,27.26
2022-10-02T01:12:50.025Z,27.28
2022-10-02T01:15:19.227Z,27.28
2022-10-02T01:17:47.996Z,27.23
2022-10-02T01:20:17.761Z,27.30
2022-10-02T01:23:09.705Z,27.38
2022-10-02T01:25:36.163Z,27.23
2022-10-02T01:28:03.077Z,27.27
2022-10-02T01:30:30.539Z,27.26
2022-10-02T01:32:59.751Z,27.28
2022-10-02T01:35:33.726Z,27.29
2022-10-02T01:38:03.742Z,27.29
2022-10-02T01:40:32.821Z,27.28
2022-10-02T01:43:07.295Z,27.36
2022-10-02T01:46:01.501Z,27.37
2022-10-02T01:48:40.102Z,27.24
2022-10-02T01:51:20.308Z,27.31
2022-10-02T01:53:53.522Z,27.32
2022-10-02T01:56:42.903Z,27.35
2022-10-02T01:59:24.558Z,27.36
2022-10-02T02:02:18.049Z,27.35
2022-10-02T02:05:00.129Z,27.32
2022-10-02T02:07:35.466Z,27.31
2022-10-02T02:10:17.256Z,27.35
2022-10-02T02:12:48.298Z,27.24
2022-10-02T02:15:28.194Z,27.35
2022-10-02T02:18:02.418Z,27.27
2022-10-02T02:20:33.090Z,27.27
2022-10-02T02:23:08.795Z,27.29
2022-10-02T02:25:40.922Z,27.29
2022-10-02T02:28:12.351Z,27.25
2022-10-02T02:30:42.444Z,27.26
2022-10-02T02:33:17.786Z,27.30
2022-10-02T02:35:48.604Z,27.28
2022-10-02T02:38:24.757Z,27.30
2022-10-02T02:40:51.889Z,27.23
2022-10-02T02:43:27.721Z,27.31
2022-10-02T02:46:01.824Z,27.26
2022-10-02T02:48:31.402Z,27.30
2022-10-02T02:51:03.342Z,27.25
2022-10-02T02:53:34.752Z,27.30
2022-10-02T02:56:06.357Z,27.27
2022-10-02T02:58:49.566Z,27.33
2022-10-02T03:01:16.052Z,27.19
2022-10-02T03:03:42.495Z,27.22
2022-10-02T03:06:21.707Z,27.32
2022-10-02T03:08:51.595Z,27.25
2022-10-02T03:11:37.303Z,27.31
2022-10-02T03:14:48.146Z,27.32
2022-10-02T03:17:21.988Z,27.26
2022-10-02T03:19:55.141Z,27.25
2022-10-02T03:22:42.795Z,27.31
2022-10-02T03:25:33.961Z,27.28
2022-10-02T03:28:43.633Z,27.28
2022-10-02T03:31:12.448Z,27.20
2022-10-02T03:33:40.301Z,27.19
2022-10-02T03:36:06.830Z,27.19
2022-10-02T03:38:33.947Z,27.18
2022-10-02T03:41:00.363Z,27.18
2022-10-02T03:43:29.508Z,27.18
2022-10-02T03:45:56.078Z,27.15
2022-10-02T03:48:22.491Z,27.18
2022-10-02T03:50:50.776Z,27.16
2022-10-02T03:53:19.911Z,27.21
2022-10-02T03:55:58.043Z,27.27
2022-10-02T03:58:25.890Z,27.20
2022-10-02T04:01:10.368Z,27.28
2022-10-02T04:03:44.549Z,27.22
2022-10-02T04:06:43.463Z,27.24
2022-10-02T04:09:18.230Z,27.20
2022-10-02T04:11:54.889Z,27.25
2022-10-02T04:14:21.185Z,27.17
2022-10-02T04:17:03.865Z,27.28
2022-10-02T04:19:39.107Z,27.25
2022-10-02T04:22:27.040Z,27.23
2022-10-02T04:25:13.691Z,27.28
2022-10-02T04:27:52.492Z,27.20
2022-10-02T04:30:20.478Z,27.18
2022-10-02T04:32:47.535Z,27.15
2022-10-02T04:35:15.090Z,27.16
2022-10-02T04:38:16.132Z,27.27
2022-10-02T04:41:06.955Z,27.26
2022-10-02T04:43:42.533Z,27.20
2022-10-02T04:46:29.918Z,27.22
2022-10-02T04:49:19.688Z,27.24
2022-10-02T04:52:04.381Z,27.19
2022-10-02T04:54:43.035Z,27.23
2022-10-02T04:57:21.386Z,27.20
2022-10-02T05:00:03.035Z,27.20
2022-10-02T05:02:56.455Z,27.23
2022-10-02T05:05:59.440Z,27.23
2022-10-02T05:08:37.929Z,27.10
2022-10-02T05:11:22.136Z,27.10
2022-10-02T05:14:05.779Z,27.22
2022-10-02T05:16:41.310Z,27.09
2022-10-02T05:19:32.527Z,27.21
2022-10-02T05:22:27.899Z,27.20
2022-10-02T05:25:01.274Z,27.16
2022-10-02T05:27:42.635Z,27.06
2022-10-02T05:30:14.582Z,27.14
2022-10-02T05:33:05.992Z,27.16
2022-10-02T05:35:35.445Z,27.12
2022-10-02T05:38:29.134Z,27.19
2022-10-02T05:41:11.188Z,27.17
2022-10-02T05:43:45.835Z,27.05
2022-10-02T05:46:25.259Z,27.16
2022-10-02T05:49:15.413Z,27.13
2022-10-02T05:51:50.442Z,27.06
2022-10-02T05:54:57.595Z,27.16
2022-10-02T05:57:31.785Z,27.09
2022-10-02T06:00:17.137Z,27.10
2022-10-02T06:02:52.557Z,27.10
2022-10-02T06:05:38.868Z,27.09
2022-10-02T06:08:11.578Z,27.06
2022-10-02T06:10:45.180Z,27.08
2022-10-02T06:13:36.379Z,27.08
2022-10-02T06:16:17.910Z,27.09
2022-10-02T06:18:49.220Z,27.04
2022-10-02T06:21:25.735Z,27.08
2022-10-02T06:23:55.855Z,26.93
2022-10-02T06:26:27.954Z,27.05
2022-10-02T06:29:04.512Z,27.08
2022-10-02T06:31:48.627Z,27.06
2022-10-02T06:34:15.330Z,26.95
2022-10-02T06:36:57.221Z,27.04
2022-10-02T06:39:46.837Z,26.98
2022-10-02T06:42:34.138Z,27.07
2022-10-02T06:45:29.926Z,27.09
2022-10-02T06:48:57.691Z,27.09
2022-10-02T06:51:39.768Z,27.09
2022-10-02T06:54:19.310Z,27.09
2022-10-02T06:57:03.359Z,27.11
2022-10-02T06:59:59.404Z,27.10
2022-10-02T07:02:49.460Z,27.05
2022-10-02T07:05:34.821Z,27.13
2022-10-02T07:08:28.252Z,27.13
2022-10-02T07:11:03.319Z,27.10
2022-10-02T07:13:37.618Z,27.01
2022-10-02T07:16:38.817Z,27.15
2022-10-02T07:19:23.682Z,27.13
2022-10-02T07:22:39.976Z,27.16
2022-10-02T07:25:22.064Z,27.15
2022-10-02T07:28:12.398Z,27.10
2022-10-02T07:31:09.655Z,27.16
2022-10-02T07:33:59.947Z,27.16
2022-10-02T07:37:09.498Z,27.16
2022-10-02T07:39:47.858Z,27.10
2022-10-02T07:42:44.226Z,27.18
2022-10-02T07:45:35.545Z,27.15
2022-10-02T07:48:13.147Z,27.12
2022-10-02T07:51:01.283Z,27.20
2022-10-02T07:53:40.939Z,27.21
2022-10-02T07:56:19.812Z,27.10
2022-10-02T07:58:57.103Z,27.19
2022-10-02T08:01:28.790Z,27.18
2022-10-02T08:04:00.367Z,27.14
2022-10-02T08:06:27.095Z,27.04
2022-10-02T08:09:11.194Z,27.27
2022-10-02T08:11:40.561Z,27.21
2022-10-02T08:14:12.372Z,27.25
2022-10-02T08:16:48.901Z,27.30
2022-10-02T08:19:19.369Z,27.24
2022-10-02T08:21:49.883Z,27.26
2022-10-02T08:24:23.595Z,27.31
2022-10-02T08:26:55.623Z,27.30
2022-10-02T08:29:40.280Z,27.38
2022-10-02T08:32:11.909Z,27.36
2022-10-02T08:34:39.939Z,27.30
2022-10-02T08:37:24.844Z,27.31
2022-10-02T08:40:01.541Z,27.39
2022-10-02T08:42:58.537Z,27.45
2022-10-02T08:46:02.388Z,27.44
2022-10-02T08:49:13.043Z,27.43
2022-10-02T08:52:07.255Z,27.44
2022-10-02T08:54:36.783Z,27.32
2022-10-02T08:57:34.614Z,27.45
2022-10-02T09:00:33.280Z,27.44
2022-10-02T09:03:18.898Z,27.42
2022-10-02T09:06:03.990Z,27.43
2022-10-02T09:09:08.644Z,27.41
2022-10-02T09:12:01.258Z,27.40
2022-10-02T09:14:54.469Z,27.39
2022-10-02T09:17:47.457Z,27.39
2022-10-02T09:20:32.456Z,27.26
2022-10-02T09:23:36.163Z,27.38
2022-10-02T09:26:19.813Z,27.33
2022-10-02T09:29:14.143Z,27.35
2022-10-02T09:32:05.605Z,27.35
2022-10-02T09:35:02.114Z,27.35
2022-10-02T09:37:28.618Z,27.24
2022-10-02T09:40:34.199Z,27.35
2022-10-02T09:43:36.003Z,27.36
2022-10-02T09:46:19.967Z,27.31
2022-10-02T09:49:17.634Z,27.37
2022-10-02T09:52:26.394Z,27.36
2022-10-02T09:55:22.064Z,27.31
2022-10-02T09:58:11.930Z,27.38
2022-10-02T10:01:13.633Z,27.38
2022-10-02T10:03:58.870Z,27.26
2022-10-02T10:06:39.186Z,27.38
2022-10-02T10:09:34.904Z,27.36
2022-10-02T10:12:31.924Z,27.38
2022-10-02T10:15:29.368Z,27.39
2022-10-02T10:18:39.342Z,27.39
2022-10-02T10:21:37.091Z,27.39
2022-10-02T10:24:13.794Z,27.37
2022-10-02T10:26:49.212Z,27.30
2022-10-02T10:29:57.796Z,27.42
2022-10-02T10:32:43.042Z,27.29
2022-10-02T10:35:23.295Z,27.39
2022-10-02T10:38:28.471Z,27.43
2022-10-02T10:41:06.131Z,27.38
2022-10-02T10:43:51.595Z,27.42
2022-10-02T10:46:51.065Z,27.44
2022-10-02T10:49:55.107Z,27.41
2022-10-02T10:52:47.590Z,27.38
2022-10-02T10:55:50.873Z,27.44
2022-10-02T10:58:25.188Z,27.40
2022-10-02T11:01:37.890Z,27.47
2022-10-02T11:04:21.986Z,27.48
2022-10-02T11:07:02.279Z,27.43
2022-10-02T11:10:00.451Z,27.48
2022-10-02T11:12:45.655Z,27.40
2022-10-02T11:16:09.040Z,27.53
2022-10-02T11:18:56.340Z,27.52
2022-10-02T11:21:51.810Z,27.54
2022-10-02T11:24:48.834Z,27.56
2022-10-02T11:27:31.674Z,27.50
2022-10-02T11:30:22.537Z,27.53
2022-10-02T11:33:27.017Z,27.58
2022-10-02T11:36:22.744Z,27.55
2022-10-02T11:39:05.799Z,27.58
2022-10-02T11:41:49.746Z,27.57
2022-10-02T11:45:02.611Z,27.58
2022-10-02T11:47:51.112Z,27.54
2022-10-02T11:50:23.581Z,27.57
2022-10-02T11:53:16.119Z,27.61
2022-10-02T11:56:12.750Z,27.60
2022-10-02T11:58:54.327Z,27.58
2022-10-02T12:01:45.297Z,27.62
2022-10-02T12:04:29.580Z,27.56
2022-10-02T12:07:02.042Z,27.58
2022-10-02T12:09:43.442Z,27.57
2022-10-02T12:12:27.731Z,27.51
2022-10-02T12:15:13.118Z,27.61
2022-10-02T12:17:55.022Z,27.51
2022-10-02T12:21:08.789Z,27.62
2022-10-02T12:24:13.847Z,27.59
2022-10-02T12:26:59.543Z,27.57
2022-10-02T12:30:04.146Z,27.62
2022-10-02T12:33:27.874Z,27.61
2022-10-02T12:36:45.522Z,27.62
2022-10-02T12:39:32.919Z,27.62
2022-10-02T12:41:59.227Z,27.52
2022-10-02T12:44:25.544Z,27.53
2022-10-02T12:47:16.551Z,27.62
2022-10-02T12:50:05.634Z,27.61
2022-10-02T12:53:06.151Z,27.62
2022-10-02T12:55:58.233Z,27.66
2022-10-02T12:58:39.547Z,27.61
2022-10-02T13:01:44.793Z,27.66
2022-10-02T13:04:13.128Z,27.57
2022-10-02T13:06:57.003Z,27.69
2022-10-02T13:09:55.479Z,27.59
2022-10-02T13:12:52.035Z,27.69
2022-10-02T13:15:43.019Z,27.72
2022-10-02T13:18:25.275Z,27.71
2022-10-02T13:21:37.476Z,27.74
2022-10-02T13:24:22.594Z,27.63
2022-10-02T13:26:59.794Z,27.71
2022-10-02T13:29:47.512Z,27.76
2022-10-02T13:32:41.667Z,27.76
2022-10-02T13:35:27.048Z,27.74
2022-10-02T13:38:07.878Z,27.72
2022-10-02T13:40:40.444Z,27.70
2022-10-02T13:43:25.130Z,27.73
2022-10-02T13:46:20.528Z,27.76
2022-10-02T13:48:55.919Z,27.76
2022-10-02T13:51:52.503Z,27.76
2022-10-02T13:54:43.561Z,27.80
2022-10-02T13:57:16.093Z,27.75
2022-10-02T13:59:51.720Z,27.69
2022-10-02T14:02:52.507Z,27.81
2022-10-02T14:05:42.521Z,27.79
2022-10-02T14:08:27.401Z,27.80
2022-10-02T14:10:56.766Z,27.68
2022-10-02T14:13:42.259Z,27.80
2022-10-02T14:16:27.282Z,27.82
2022-10-02T14:19:20.089Z,27.76
2022-10-02T14:22:13.526Z,27.80
2022-10-02T14:25:03.830Z,27.85
2022-10-02T14:27:57.365Z,27.87
2022-10-02T14:30:52.311Z,27.91
2022-10-02T14:33:24.622Z,27.86
2022-10-02T14:36:05.179Z,27.91
2022-10-02T14:38:49.683Z,28.04
2022-10-02T14:41:22.676Z,28.06
2022-10-02T14:44:01.862Z,28.12
2022-10-02T14:46:47.596Z,28.05
2022-10-02T14:49:31.359Z,28.14
2022-10-02T14:52:26.151Z,28.17
2022-10-02T14:55:01.865Z,28.10
2022-10-02T14:58:00.966Z,28.13
2022-10-02T15:00:44.052Z,28.09
2022-10-02T15:03:32.363Z,28.07
2022-10-02T15:05:58.672Z,28.02
2022-10-02T15:08:38.546Z,28.08
2022-10-02T15:11:18.244Z,28.00
2022-10-02T15:13:55.111Z,28.04
2022-10-02T15:17:04.659Z,28.04
2022-10-02T15:19:49.108Z,28.05
2022-10-02T15:22:25.978Z,27.96
2022-10-02T15:25:06.519Z,28.04
2022-10-02T15:28:35.206Z,28.05
2022-10-02T15:31:28.681Z,28.03
2022-10-02T15:34:20.143Z,28.04
2022-10-02T15:37:06.358Z,27.99
2022-10-02T15:39:38.743Z,27.94
2022-10-02T15:42:10.159Z,28.00
2022-10-02T15:44:36.475Z,27.94
2022-10-02T15:47:29.985Z,28.03
2022-10-02T15:50:05.496Z,28.03
2022-10-02T15:53:10.807Z,28.03
2022-10-02T15:55:47.634Z,27.92
2022-10-02T15:58:26.320Z,27.94
2022-10-02T16:01:01.973Z,28.01
2022-10-02T16:03:40.981Z,28.01
2022-10-02T16:06:43.999Z,28.04
2022-10-02T16:09:21.862Z,28.04
2022-10-02T16:12:04.486Z,28.01
2022-10-02T16:14:52.373Z,28.02
2022-10-02T16:17:59.027Z,28.05
2022-10-02T16:20:31.113Z,27.99
2022-10-02T16:23:02.323Z,28.02
2022-10-02T16:25:52.000Z,28.04
2022-10-02T16:28:48.804Z,28.04
2022-10-02T16:31:43.393Z,28.01
2022-10-02T16:34:28.053Z,28.02
2022-10-02T16:37:18.995Z,27.98
2022-10-02T16:40:04.344Z,28.02
2022-10-02T16:42:40.059Z,27.96
2022-10-02T16:45:39.523Z,28.02
2022-10-02T16:48:21.349Z,27.97
2022-10-02T16:51:12.615Z,27.99
2022-10-02T16:54:08.335Z,27.99
2022-10-02T16:57:07.187Z,28.00
2022-10-02T16:59:54.804Z,27.99
2022-10-02T17:02:43.335Z,27.99
2022-10-02T17:05:26.125Z,27.99
2022-10-02T17:08:08.402Z,27.97
2022-10-02T17:10:58.850Z,27.94
2022-10-02T17:13:37.383Z,27.94
2022-10-02T17:16:20.951Z,27.96
2022-10-02T17:18:58.318Z,27.97
2022-10-02T17:21:31.760Z,27.92
2022-10-02T17:24:31.636Z,27.96
2022-10-02T17:27:13.781Z,27.95
2022-10-02T17:29:50.525Z,27.96
2022-10-02T17:32:51.450Z,27.99
2022-10-02T17:35:23.903Z,27.96
2022-10-02T17:38:18.603Z,27.97
2022-10-02T17:41:07.018Z,27.97
2022-10-02T17:43:51.534Z,27.96
2022-10-02T17:46:26.978Z,27.93
2022-10-02T17:49:37.935Z,27.95
2022-10-02T17:52:58.195Z,27.96
2022-10-02T17:55:56.663Z,27.92
2022-10-02T17:58:46.112Z,27.96
2022-10-02T18:01:24.450Z,27.93
2022-10-02T18:03:59.988Z,27.90
2022-10-02T18:06:38.656Z,27.93
2022-10-02T18:09:30.125Z,27.96
2022-10-02T18:12:18.506Z,27.95
2022-10-02T18:15:23.716Z,27.96
2022-10-02T18:18:18.551Z,27.94
2022-10-02T18:20:57.351Z,27.90
2022-10-02T18:23:36.006Z,27.93
2022-10-02T18:26:20.751Z,27.94
2022-10-02T18:28:59.346Z,27.90
2022-10-02T18:31:53.971Z,27.91
2022-10-02T18:34:33.810Z,27.94
2022-10-02T18:37:38.199Z,27.95
2022-10-02T18:40:28.292Z,27.95
2022-10-02T18:43:12.835Z,27.72
2022-10-02T18:46:00.344Z,27.93
2022-10-02T18:48:45.268Z,27.96
2022-10-02T18:51:27.041Z,27.96
2022-10-02T18:53:59.669Z,27.94
2022-10-02T18:56:51.884Z,27.97
2022-10-02T18:59:47.865Z,27.97
2022-10-02T19:02:30.171Z,27.93
2022-10-02T19:05:15.091Z,27.84
2022-10-02T19:08:13.058Z,27.96
2022-10-02T19:10:43.737Z,27.88
2022-10-02T19:13:17.589Z,27.84
2022-10-02T19:15:46.705Z,27.85
2022-10-02T19:18:22.913Z,27.94
2022-10-02T19:21:06.615Z,27.91
2022-10-02T19:23:46.472Z,27.93
2022-10-02T19:26:24.458Z,27.94
2022-10-02T19:28:55.262Z,27.89
2022-10-02T19:31:24.949Z,27.84
2022-10-02T19:33:55.774Z,27.89
2022-10-02T19:36:28.242Z,27.94
2022-10-02T19:39:01.272Z,27.91
2022-10-02T19:41:29.998Z,27.87
2022-10-02T19:44:00.182Z,27.91
2022-10-02T19:46:48.895Z,28.00
2022-10-02T19:49:24.390Z,27.96
2022-10-02T19:51:52.895Z,27.89
2022-10-02T19:54:26.168Z,27.92
2022-10-02T19:56:58.775Z,27.94
2022-10-02T19:59:32.484Z,27.92
2022-10-02T20:02:04.392Z,27.92
2022-10-02T20:04:32.223Z,27.88
2022-10-02T20:07:00.657Z,27.91
2022-10-02T20:09:29.772Z,27.89
2022-10-02T20:12:14.913Z,28.00
2022-10-02T20:14:50.508Z,27.92
2022-10-02T20:17:17.877Z,27.88
2022-10-02T20:19:51.843Z,27.92
2022-10-02T20:22:34.950Z,27.98
2022-10-02T20:25:18.655Z,27.94
2022-10-02T20:27:55.592Z,27.95
2022-10-02T20:30:29.695Z,27.88
2022-10-02T20:32:59.039Z,27.93
2022-10-02T20:35:34.581Z,27.93
2022-10-02T20:38:11.103Z,27.89
2022-10-02T20:40:44.166Z,27.86
2022-10-02T20:43:20.132Z,27.96
2022-10-02T20:46:03.396Z,27.97
2022-10-02T20:49:07.893Z,27.98
2022-10-02T20:51:51.729Z,27.87
2022-10-02T20:54:31.643Z,27.96
2022-10-02T20:57:14.890Z,27.92
2022-10-02T21:00:03.434Z,27.98
2022-10-02T21:02:49.650Z,27.96
2022-10-02T21:05:34.070Z,27.95
2022-10-02T21:08:14.111Z,27.92
2022-10-02T21:11:13.867Z,27.97
2022-10-02T21:13:49.480Z,27.65
2022-10-02T21:16:45.237Z,27.97
2022-10-02T21:19:36.803Z,27.91
2022-10-02T21:22:49.199Z,27.97
2022-10-02T21:25:25.343Z,27.85
2022-10-02T21:28:13.457Z,27.98
2022-10-02T21:30:59.031Z,27.93
2022-10-02T21:33:31.870Z,27.91
2022-10-02T21:36:21.065Z,27.94
2022-10-02T21:39:13.323Z,27.92
2022-10-02T21:42:17.618Z,27.96
2022-10-02T21:45:14.993Z,27.94
2022-10-02T21:48:06.182Z,27.96
2022-10-02T21:51:16.028Z,27.96
2022-10-02T21:53:50.803Z,27.93
2022-10-02T21:56:35.832Z,27.94
2022-10-02T21:59:25.573Z,27.93
2022-10-02T22:02:08.297Z,27.91
2022-10-02T22:05:03.449Z,27.95
2022-10-02T22:07:43.668Z,27.90
2022-10-02T22:10:22.075Z,27.90
2022-10-02T22:13:32.754Z,27.94
2022-10-02T22:16:21.986Z,27.93
2022-10-02T22:19:04.641Z,27.92
2022-10-02T22:21:40.242Z,27.91
2022-10-02T22:24:19.308Z,27.89
2022-10-02T22:27:07.767Z,27.87
2022-10-02T22:29:56.056Z,27.90
2022-10-02T22:32:56.259Z,27.91
2022-10-02T22:35:52.863Z,27.90
2022-10-02T22:38:35.786Z,27.86
2022-10-02T22:41:12.003Z,27.90
2022-10-02T22:44:03.033Z,27.90
2022-10-02T22:46:47.565Z,27.87
2022-10-02T22:49:46.496Z,27.90
2022-10-02T22:52:22.622Z,27.87
2022-10-02T22:55:15.380Z,27.90
2022-10-02T22:58:05.617Z,27.89
2022-10-02T23:00:50.094Z,27.86
2022-10-02T23:03:20.682Z,27.84
2022-10-02T23:06:01.151Z,27.82
2022-10-02T23:08:59.137Z,27.88
2022-10-02T23:11:31.791Z,27.83
2022-10-02T23:14:25.922Z,27.88
2022-10-02T23:17:16.659Z,27.86
2022-10-02T23:19:49.502Z,27.82
2022-10-02T23:22:39.904Z,27.83
2022-10-02T23:25:26.883Z,27.87
2022-10-02T23:28:34.136Z,27.87
2022-10-02T23:31:12.976Z,27.75
2022-10-02T23:34:06.471Z,27.86
2022-10-02T23:36:44.346Z,27.80
2022-10-02T23:39:28.559Z,27.80
2022-10-02T23:41:58.369Z,27.78
2022-10-02T23:44:42.158Z,27.81
2022-10-02T23:47:17.555Z,27.71
2022-10-02T23:49:55.064Z,27.83
2022-10-02T23:52:33.571Z,27.72
2022-10-02T23:55:18.906Z,27.84
2022-10-02T23:58:22.027Z,27.85
